Time;durP1;ratioP1;P1;durP2;ratioP2;P2;SDS_P1;SDS_P2;PMS_P1;PMS_P2;Temp;Humidity;BMP_temperature;BMP_pressure;BME280_temperature;BME280_humidity;BME280_pressure;Samples;Min_cycle;Max_cycle;Signal;HPM_P1;HPM_P2
2022/08/22 00:03:06;;;;;;;13.27;4.00;;;;;;;;;;10063106;28;20110;-68
2022/08/22 00:08:21;;;;;;;8.90;3.08;;;;;;;;;;10050742;28;20047;-68
2022/08/22 00:13:36;;;;;;;12.25;4.28;;;;;;;;;;10052546;28;20450;-69
2022/08/22 00:18:38;;;;;;;10.05;4.05;;;;;;;;;;10060430;28;20165;-69
2022/08/22 00:23:40;;;;;;;9.35;3.38;;;;;;;;;;10057430;28;20494;-69
2022/08/22 00:28:39;;;;;;;12.07;3.67;;;;;;;;;;10064123;28;20047;-69
2022/08/22 00:33:39;;;;;;;9.38;3.47;;;;;;;;;;10046156;28;20063;-69
2022/08/22 00:38:39;;;;;;;8.60;2.83;;;;;;;;;;10062157;28;20046;-69
2022/08/22 00:43:45;;;;;;;8.40;3.35;;;;;;;;;;10053565;28;20134;-69
2022/08/22 00:49:03;;;;;;;7.15;3.17;;;;;;;;;;10051586;28;20135;-69
2022/08/22 00:54:05;;;;;;;12.18;3.70;;;;;;;;;;10058799;28;21372;-70
2022/08/22 00:59:12;;;;;;;7.20;2.80;;;;;;;;;;10069231;28;20425;-69
2022/08/22 01:09:50;;;;;;;12.83;4.47;;;;;;;;;;10519911;23;20050;-68
2022/08/22 01:14:50;;;;;;;8.05;3.38;;;;;;;;;;10135828;28;20069;-68
2022/08/22 01:19:53;;;;;;;9.90;3.30;;;;;;;;;;10094205;28;20499;-69
2022/08/22 01:30:11;;;;;;;6.57;3.00;;;;;;;;;;10113162;28;20061;-71
2022/08/22 01:35:13;;;;;;;9.15;3.38;;;;;;;;;;10110333;28;20131;-70
2022/08/22 01:40:38;;;;;;;7.93;2.97;;;;;;;;;;10105852;28;20596;-71
2022/08/22 01:46:18;;;;;;;7.72;3.20;;;;;;;;;;10100335;28;20563;-70
2022/08/22 01:51:29;;;;;;;5.90;3.10;;;;;;;;;;10107101;28;20121;-71
2022/08/22 01:56:30;;;;;;;6.75;3.13;;;;;;;;;;10109016;28;20136;-71
2022/08/22 02:01:29;;;;;;;9.88;3.22;;;;;;;;;;10106555;28;20143;-70
2022/08/22 02:06:34;;;;;;;13.75;4.00;;;;;;;;;;10103267;28;20133;-69
2022/08/22 02:11:49;;;;;;;11.93;3.47;;;;;;;;;;10100296;28;20570;-70
2022/08/22 02:16:48;;;;;;;8.95;2.90;;;;;;;;;;10106434;28;20042;-70
2022/08/22 02:22:01;;;;;;;12.77;4.10;;;;;;;;;;10101563;28;20046;-71
2022/08/22 02:27:18;;;;;;;13.40;3.60;;;;;;;;;;10107925;28;20053;-70
2022/08/22 02:32:21;;;;;;;13.23;4.13;;;;;;;;;;10101792;28;20146;-70
2022/08/22 02:37:32;;;;;;;11.65;3.45;;;;;;;;;;10100557;28;20083;-69
2022/08/22 02:42:28;;;;;;;9.63;3.40;;;;;;;;;;10102565;28;20113;-70
2022/08/22 02:47:44;;;;;;;12.70;3.47;;;;;;;;;;10096439;28;20073;-69
2022/08/22 02:52:41;;;;;;;7.90;4.03;;;;;;;;;;10096050;28;20138;-69
2022/08/22 02:57:41;;;;;;;7.57;3.53;;;;;;;;;;10100618;28;20133;-69
2022/08/22 03:02:40;;;;;;;9.73;3.50;;;;;;;;;;10100282;28;20046;-69
2022/08/22 03:07:42;;;;;;;12.98;4.25;;;;;;;;;;10104465;28;20050;-69
2022/08/22 03:12:38;;;;;;;7.80;2.80;;;;;;;;;;10106582;28;20496;-69
2022/08/22 03:17:39;;;;;;;9.40;3.20;;;;;;;;;;10101003;28;21121;-70
2022/08/22 03:22:55;;;;;;;12.05;3.28;;;;;;;;;;10100317;28;20134;-69
2022/08/22 03:28:05;;;;;;;7.35;3.15;;;;;;;;;;10105274;28;20133;-69
2022/08/22 03:33:20;;;;;;;16.90;3.92;;;;;;;;;;10098520;28;20717;-70
2022/08/22 03:38:19;;;;;;;7.35;3.22;;;;;;;;;;10100480;28;20057;-70
2022/08/22 03:43:34;;;;;;;11.25;3.60;;;;;;;;;;10097665;28;20078;-70
2022/08/22 03:48:49;;;;;;;9.02;3.83;;;;;;;;;;10101442;28;20113;-69
2022/08/22 03:54:05;;;;;;;11.05;3.28;;;;;;;;;;10099135;28;20177;-70
2022/08/22 03:59:18;;;;;;;7.40;3.10;;;;;;;;;;10095284;28;20113;-69
2022/08/22 04:04:40;;;;;;;9.70;3.65;;;;;;;;;;10094942;28;20153;-70
2022/08/22 04:09:43;;;;;;;10.43;4.03;;;;;;;;;;10102209;28;20049;-70
2022/08/22 04:14:53;;;;;;;5.75;3.08;;;;;;;;;;10098106;28;20633;-69
2022/08/22 04:20:00;;;;;;;10.88;3.63;;;;;;;;;;10091595;28;20054;-69
2022/08/22 04:25:03;;;;;;;10.23;3.58;;;;;;;;;;10093397;28;20154;-69
2022/08/22 04:30:23;;;;;;;9.18;3.20;;;;;;;;;;10094009;28;20066;-69
2022/08/22 04:35:31;;;;;;;9.73;4.13;;;;;;;;;;10089806;28;20076;-69
2022/08/22 04:40:33;;;;;;;8.45;3.85;;;;;;;;;;10093189;28;20778;-69
2022/08/22 04:45:34;;;;;;;11.00;4.13;;;;;;;;;;10086814;28;20043;-70
2022/08/22 04:50:35;;;;;;;7.33;3.73;;;;;;;;;;10087380;28;20708;-69
2022/08/22 04:55:38;;;;;;;10.15;4.25;;;;;;;;;;10098320;28;20047;-70
2022/08/22 05:00:38;;;;;;;12.60;5.57;;;;;;;;;;10092649;28;20125;-70
2022/08/22 05:05:36;;;;;;;11.18;4.40;;;;;;;;;;10094807;28;20054;-72
2022/08/22 05:10:37;;;;;;;9.30;4.53;;;;;;;;;;10105387;28;20142;-73
2022/08/22 05:15:35;;;;;;;11.25;4.03;;;;;;;;;;10099986;28;20070;-72
2022/08/22 05:20:32;;;;;;;8.55;4.45;;;;;;;;;;10103031;28;20074;-71
2022/08/22 05:25:31;;;;;;;10.00;3.97;;;;;;;;;;10109888;28;20449;-72
2022/08/22 05:30:30;;;;;;;12.00;4.57;;;;;;;;;;10109938;28;20105;-72
2022/08/22 05:35:35;;;;;;;9.85;4.45;;;;;;;;;;10112326;28;20097;-72
2022/08/22 05:40:32;;;;;;;12.52;4.50;;;;;;;;;;10107175;28;20760;-72
2022/08/22 05:45:28;;;;;;;9.85;4.95;;;;;;;;;;10112108;28;20464;-72
2022/08/22 05:50:40;;;;;;;10.85;4.45;;;;;;;;;;10105484;28;20047;-72
2022/08/22 05:55:55;;;;;;;10.30;3.40;;;;;;;;;;10100372;28;20134;-72
2022/08/22 06:00:59;;;;;;;7.70;3.17;;;;;;;;;;10107821;28;20082;-72
2022/08/22 06:05:58;;;;;;;12.95;4.25;;;;;;;;;;10104613;28;20055;-72
2022/08/22 06:10:56;;;;;;;9.75;4.20;;;;;;;;;;10108767;28;20127;-71
2022/08/22 06:15:52;;;;;;;6.85;3.28;;;;;;;;;;10110963;28;20066;-72
2022/08/22 06:20:52;;;;;;;8.70;3.75;;;;;;;;;;10108290;28;20050;-72
2022/08/22 06:25:49;;;;;;;10.80;4.25;;;;;;;;;;10106479;28;20105;-72
2022/08/22 06:30:46;;;;;;;8.70;4.40;;;;;;;;;;10109803;28;20154;-72
2022/08/22 06:41:02;;;;;;;10.38;3.60;;;;;;;;;;10103369;28;20050;-72
2022/08/22 06:45:59;;;;;;;9.63;3.35;;;;;;;;;;10105208;28;20133;-72
2022/08/22 06:50:57;;;;;;;11.25;3.80;;;;;;;;;;10110289;28;20130;-72
2022/08/22 06:55:55;;;;;;;12.85;7.13;;;;;;;;;;10109062;28;20452;-72
2022/08/22 07:00:53;;;;;;;11.52;4.07;;;;;;;;;;10099056;28;20763;-72
2022/08/22 07:06:11;;;;;;;10.05;4.25;;;;;;;;;;10106917;28;20505;-72
2022/08/22 07:11:16;;;;;;;9.10;3.30;;;;;;;;;;10107755;28;20105;-72
2022/08/22 07:16:13;;;;;;;13.88;3.88;;;;;;;;;;10106698;28;20090;-72
2022/08/22 07:21:10;;;;;;;9.43;4.47;;;;;;;;;;10105028;28;20043;-72
2022/08/22 07:26:06;;;;;;;12.05;4.43;;;;;;;;;;10100111;28;20073;-72
2022/08/22 07:31:12;;;;;;;9.70;3.97;;;;;;;;;;10105488;28;20138;-72
2022/08/22 07:36:21;;;;;;;9.02;4.47;;;;;;;;;;10102596;28;20652;-72
2022/08/22 07:41:18;;;;;;;11.38;5.28;;;;;;;;;;10099712;28;20055;-72
2022/08/22 07:46:18;;;;;;;6.18;3.83;;;;;;;;;;10099459;28;20129;-72
2022/08/22 07:51:16;;;;;;;7.15;4.10;;;;;;;;;;10108820;28;20720;-72
2022/08/22 07:56:15;;;;;;;11.27;4.35;;;;;;;;;;10106822;28;20043;-72
2022/08/22 08:01:14;;;;;;;9.10;4.22;;;;;;;;;;10104463;28;20078;-72
2022/08/22 08:06:10;;;;;;;7.43;4.53;;;;;;;;;;10095240;28;20082;-72
2022/08/22 08:11:08;;;;;;;12.48;5.68;;;;;;;;;;10098258;28;20134;-72
2022/08/22 08:16:06;;;;;;;8.10;4.65;;;;;;;;;;10057237;28;20126;-72
2022/08/22 08:21:03;;;;;;;7.60;4.57;;;;;;;;;;10070787;28;20105;-72
2022/08/22 08:26:05;;;;;;;8.65;4.85;;;;;;;;;;10103247;28;20134;-72
2022/08/22 08:31:08;;;;;;;9.07;4.63;;;;;;;;;;10105801;28;20496;-72
2022/08/22 08:36:11;;;;;;;11.90;5.22;;;;;;;;;;10103955;28;20074;-72
2022/08/22 08:41:40;;;;;;;11.68;5.32;;;;;;;;;;10101085;28;20154;-72
2022/08/22 08:46:56;;;;;;;14.68;6.20;;;;;;;;;;10096133;28;20085;-72
2022/08/22 08:52:04;;;;;;;11.38;5.60;;;;;;;;;;10095239;28;20492;-72
2022/08/22 08:57:14;;;;;;;9.88;5.85;;;;;;;;;;10103155;28;20085;-73
2022/08/22 09:02:26;;;;;;;11.75;5.65;;;;;;;;;;10101995;28;20126;-73
2022/08/22 09:07:44;;;;;;;7.80;5.55;;;;;;;;;;10094203;28;20137;-72
2022/08/22 09:13:01;;;;;;;12.05;6.13;;;;;;;;;;10101200;28;20109;-72
2022/08/22 09:18:26;;;;;;;9.20;6.55;;;;;;;;;;10101446;28;20054;-72
2022/08/22 09:23:40;;;;;;;10.27;6.63;;;;;;;;;;10102592;28;20121;-72
2022/08/22 09:28:38;;;;;;;10.50;7.20;;;;;;;;;;10103579;28;20529;-72
2022/08/22 09:33:38;;;;;;;17.45;11.65;;;;;;;;;;10102161;28;20050;-72
2022/08/22 09:38:44;;;;;;;15.32;7.65;;;;;;;;;;10097630;28;20057;-72
2022/08/22 09:43:48;;;;;;;11.65;7.07;;;;;;;;;;10102176;28;20074;-70
2022/08/22 09:48:47;;;;;;;10.68;7.55;;;;;;;;;;10109727;28;20564;-70
2022/08/22 09:54:02;;;;;;;13.55;7.57;;;;;;;;;;10108971;28;20073;-70
2022/08/22 09:59:02;;;;;;;13.00;7.80;;;;;;;;;;10102380;28;20101;-70
2022/08/22 10:04:13;;;;;;;10.35;7.80;;;;;;;;;;10109980;28;20141;-70
2022/08/22 10:09:23;;;;;;;10.98;8.05;;;;;;;;;;10109273;28;20042;-70
2022/08/22 10:14:32;;;;;;;7.95;7.22;;;;;;;;;;10109354;28;20047;-70
2022/08/22 10:19:31;;;;;;;9.25;8.10;;;;;;;;;;10107008;28;20126;-69
2022/08/22 10:24:39;;;;;;;10.00;7.20;;;;;;;;;;10105696;28;20038;-70
2022/08/22 10:29:48;;;;;;;9.60;7.93;;;;;;;;;;10107215;28;20054;-70
2022/08/22 10:34:46;;;;;;;10.35;7.70;;;;;;;;;;10107879;28;20129;-70
2022/08/22 10:39:47;;;;;;;8.10;7.30;;;;;;;;;;10103114;28;20397;-70
2022/08/22 10:44:51;;;;;;;8.48;7.70;;;;;;;;;;10101890;28;20110;-70
2022/08/22 10:49:53;;;;;;;9.68;8.63;;;;;;;;;;10106921;28;20068;-70
2022/08/22 10:55:04;;;;;;;9.02;7.60;;;;;;;;;;10105286;28;20113;-70
2022/08/22 11:00:10;;;;;;;9.32;7.40;;;;;;;;;;10102140;28;20074;-70
2022/08/22 11:05:16;;;;;;;10.60;7.95;;;;;;;;;;10103137;28;20496;-70
2022/08/22 11:10:31;;;;;;;11.60;7.70;;;;;;;;;;10105965;28;20693;-70
2022/08/22 11:15:48;;;;;;;9.27;7.85;;;;;;;;;;10108796;28;20101;-70
2022/08/22 11:20:56;;;;;;;10.93;7.65;;;;;;;;;;10106010;28;20047;-70
2022/08/22 11:26:00;;;;;;;9.88;7.15;;;;;;;;;;10105596;28;20077;-70
2022/08/22 11:31:07;;;;;;;8.70;7.80;;;;;;;;;;10109417;28;20125;-70
2022/08/22 11:36:10;;;;;;;9.60;7.45;;;;;;;;;;10106971;28;20057;-70
2022/08/22 11:41:09;;;;;;;7.88;7.15;;;;;;;;;;10102281;28;20551;-70
2022/08/22 11:46:20;;;;;;;8.57;7.45;;;;;;;;;;10102452;28;20078;-70
2022/08/22 11:51:17;;;;;;;;;;;;;;;;;;10108505;28;20101;-70
2022/08/22 11:56:16;;;;;;;7.95;7.25;;;;;;;;;;10102245;28;19921;-70
2022/08/22 12:01:29;;;;;;;9.20;7.40;;;;;;;;;;10104349;28;20051;-70
2022/08/22 12:06:48;;;;;;;8.38;7.47;;;;;;;;;;10105455;28;20700;-70
2022/08/22 12:12:14;;;;;;;8.27;7.57;;;;;;;;;;10101080;28;20047;-70
2022/08/22 12:17:25;;;;;;;8.43;7.65;;;;;;;;;;10099089;28;20850;-70
2022/08/22 12:22:51;;;;;;;8.65;7.95;;;;;;;;;;10099197;28;21048;-70
2022/08/22 12:28:06;;;;;;;9.07;8.13;;;;;;;;;;10098676;28;20136;-70
2022/08/22 12:33:12;;;;;;;8.10;7.28;;;;;;;;;;10103689;28;20616;-70
2022/08/22 12:38:37;;;;;;;8.77;7.47;;;;;;;;;;10095741;28;20054;-70
2022/08/22 12:43:42;;;;;;;8.15;7.32;;;;;;;;;;10095072;28;20105;-70
2022/08/22 12:48:50;;;;;;;9.05;7.82;;;;;;;;;;10105840;28;20093;-70
2022/08/22 12:54:05;;;;;;;8.52;7.65;;;;;;;;;;10103404;28;20059;-70
2022/08/22 12:59:22;;;;;;;8.80;7.32;;;;;;;;;;10103438;28;20055;-70
2022/08/22 13:04:20;;;;;;;9.70;7.70;;;;;;;;;;10105401;28;20153;-70
2022/08/22 13:09:29;;;;;;;7.75;6.95;;;;;;;;;;10103023;28;20049;-70
2022/08/22 13:14:27;;;;;;;7.60;6.45;;;;;;;;;;10106159;28;20042;-70
2022/08/22 13:19:32;;;;;;;9.23;6.45;;;;;;;;;;10105247;28;20051;-70
2022/08/22 13:24:34;;;;;;;8.57;6.60;;;;;;;;;;10104105;28;20087;-70
2022/08/22 13:29:39;;;;;;;8.27;6.53;;;;;;;;;;10111532;28;20061;-70
2022/08/22 13:34:42;;;;;;;7.90;7.15;;;;;;;;;;10104916;28;20433;-70
2022/08/22 13:39:41;;;;;;;8.30;7.00;;;;;;;;;;10110723;28;20054;-70
2022/08/22 13:44:39;;;;;;;7.03;6.32;;;;;;;;;;10110258;28;20138;-70
2022/08/22 13:49:39;;;;;;;10.52;6.53;;;;;;;;;;10104395;28;20061;-70
2022/08/22 13:54:39;;;;;;;7.85;6.70;;;;;;;;;;10103092;28;20500;-70
2022/08/22 13:59:38;;;;;;;8.00;6.40;;;;;;;;;;10104475;28;20090;-70
2022/08/22 14:04:50;;;;;;;6.40;5.90;;;;;;;;;;10112465;28;20054;-70
2022/08/22 14:09:55;;;;;;;9.30;7.30;;;;;;;;;;10104147;28;20051;-70
2022/08/22 14:14:56;;;;;;;6.72;6.07;;;;;;;;;;10111226;28;20133;-70
2022/08/22 14:19:56;;;;;;;8.93;6.65;;;;;;;;;;10106671;28;20043;-70
2022/08/22 14:24:59;;;;;;;7.85;6.10;;;;;;;;;;10111503;28;20051;-70
2022/08/22 14:29:57;;;;;;;8.93;6.65;;;;;;;;;;10108789;28;20043;-70
2022/08/22 14:35:05;;;;;;;7.93;6.53;;;;;;;;;;10108521;28;20039;-70
2022/08/22 14:40:09;;;;;;;7.25;6.55;;;;;;;;;;10111476;28;20050;-70
2022/08/22 14:45:12;;;;;;;7.93;6.43;;;;;;;;;;10108605;28;20697;-70
2022/08/22 14:50:29;;;;;;;7.03;6.30;;;;;;;;;;10111392;28;20050;-70
2022/08/22 14:55:25;;;;;;;6.95;6.25;;;;;;;;;;10109074;28;20097;-69
2022/08/22 15:00:28;;;;;;;9.10;6.47;;;;;;;;;;10110148;28;20121;-70
2022/08/22 15:05:24;;;;;;;7.63;5.72;;;;;;;;;;10104719;28;20051;-70
2022/08/22 15:10:24;;;;;;;7.07;6.38;;;;;;;;;;10108025;28;20086;-70
2022/08/22 15:15:40;;;;;;;7.57;6.80;;;;;;;;;;10110168;28;20109;-70
2022/08/22 15:20:59;;;;;;;8.15;7.18;;;;;;;;;;10107417;28;20673;-70
2022/08/22 15:26:07;;;;;;;9.20;6.18;;;;;;;;;;10108457;28;20051;-70
2022/08/22 15:31:14;;;;;;;6.82;6.13;;;;;;;;;;10103868;28;20591;-70
2022/08/22 15:36:21;;;;;;;6.90;6.30;;;;;;;;;;10104990;28;20089;-70
2022/08/22 15:41:28;;;;;;;7.13;6.20;;;;;;;;;;10100074;28;20560;-69
2022/08/22 15:46:40;;;;;;;11.18;6.93;;;;;;;;;;10098845;28;20069;-69
2022/08/22 15:51:36;;;;;;;7.47;6.53;;;;;;;;;;10111274;28;20076;-69
2022/08/22 15:56:38;;;;;;;8.25;6.20;;;;;;;;;;10106541;28;20066;-70
2022/08/22 16:01:47;;;;;;;6.68;6.07;;;;;;;;;;10102830;28;20067;-70
2022/08/22 16:06:56;;;;;;;7.68;6.55;;;;;;;;;;10101938;28;20636;-70
2022/08/22 16:11:54;;;;;;;7.07;6.40;;;;;;;;;;10105708;28;20101;-70
2022/08/22 16:16:51;;;;;;;8.27;6.38;;;;;;;;;;10093759;28;20487;-69
2022/08/22 16:21:50;;;;;;;7.82;6.45;;;;;;;;;;10103711;28;20110;-70
2022/08/22 16:26:46;;;;;;;8.75;6.47;;;;;;;;;;10096196;28;20586;-70
2022/08/22 16:31:43;;;;;;;9.82;6.20;;;;;;;;;;10095583;28;20142;-70
2022/08/22 16:36:49;;;;;;;8.95;7.13;;;;;;;;;;10101411;28;20046;-69
2022/08/22 16:41:46;;;;;;;8.30;7.20;;;;;;;;;;10101100;28;20047;-69
2022/08/22 16:46:43;;;;;;;8.73;7.18;;;;;;;;;;10097280;28;20146;-69
2022/08/22 16:52:00;;;;;;;10.65;6.88;;;;;;;;;;10097795;28;20139;-69
2022/08/22 16:57:04;;;;;;;8.07;7.30;;;;;;;;;;10083754;28;20081;-69
2022/08/22 17:02:17;;;;;;;11.65;7.25;;;;;;;;;;10100246;28;20081;-69
2022/08/22 17:07:37;;;;;;;7.32;6.63;;;;;;;;;;10093639;28;20039;-69
2022/08/22 17:12:36;;;;;;;7.50;6.65;;;;;;;;;;10096981;28;20423;-69
2022/08/22 17:17:48;;;;;;;7.90;7.18;;;;;;;;;;10101831;28;20244;-69
2022/08/22 17:22:58;;;;;;;7.55;6.78;;;;;;;;;;10095649;28;20113;-69
2022/08/22 17:28:09;;;;;;;8.20;6.93;;;;;;;;;;10091345;28;20497;-69
2022/08/22 17:33:05;;;;;;;7.03;6.13;;;;;;;;;;10097249;28;20398;-68
2022/08/22 17:38:25;;;;;;;7.00;6.30;;;;;;;;;;10090642;28;20657;-68
2022/08/22 17:43:27;;;;;;;8.23;6.05;;;;;;;;;;10089920;28;20074;-68
2022/08/22 17:49:13;;;;;;;12.55;6.82;;;;;;;;;;10095242;28;20410;-69
2022/08/22 17:54:12;;;;;;;10.73;5.78;;;;;;;;;;10095993;28;20047;-67
2022/08/22 17:59:14;;;;;;;7.07;5.38;;;;;;;;;;10090198;28;20130;-68
2022/08/22 18:04:21;;;;;;;7.65;5.38;;;;;;;;;;10087347;28;20043;-68
2022/08/22 18:09:28;;;;;;;10.15;5.70;;;;;;;;;;10094391;28;20515;-68
2022/08/22 18:14:30;;;;;;;8.52;5.75;;;;;;;;;;10098598;28;20046;-68
2022/08/22 18:19:29;;;;;;;9.70;4.80;;;;;;;;;;10093977;28;20137;-68
2022/08/22 18:24:38;;;;;;;6.30;3.90;;;;;;;;;;10103061;28;20076;-68
2022/08/22 18:29:34;;;;;;;6.65;4.22;;;;;;;;;;10100018;28;20105;-68
2022/08/22 18:34:43;;;;;;;7.55;4.35;;;;;;;;;;10103255;28;20089;-68
2022/08/22 18:39:54;;;;;;;7.93;4.78;;;;;;;;;;10096120;28;20035;-68
2022/08/22 18:44:51;;;;;;;8.77;4.32;;;;;;;;;;10100207;28;20054;-68
2022/08/22 18:49:52;;;;;;;10.23;4.45;;;;;;;;;;10104183;28;20077;-68
2022/08/22 18:54:49;;;;;;;7.20;4.35;;;;;;;;;;10099273;28;20089;-68
2022/08/22 19:00:08;;;;;;;7.45;4.07;;;;;;;;;;10099349;28;20612;-68
2022/08/22 19:05:18;;;;;;;5.68;3.72;;;;;;;;;;10056384;28;20059;-68
2022/08/22 19:10:21;;;;;;;8.75;4.32;;;;;;;;;;10098714;28;20074;-68
2022/08/22 19:15:36;;;;;;;9.02;4.07;;;;;;;;;;10092657;28;20620;-69
2022/08/22 19:26:11;;;;;;;8.35;4.63;;;;;;;;;;10100237;28;20141;-68
2022/08/22 19:31:20;;;;;;;7.53;4.25;;;;;;;;;;10090607;28;20137;-68
2022/08/22 19:36:29;;;;;;;6.20;4.03;;;;;;;;;;10078924;28;20122;-68
2022/08/22 19:41:38;;;;;;;7.53;4.20;;;;;;;;;;10087625;28;20046;-68
2022/08/22 19:46:36;;;;;;;8.23;3.88;;;;;;;;;;10094694;28;20063;-68
2022/08/22 19:51:33;;;;;;;10.20;4.90;;;;;;;;;;10099812;28;20759;-69
2022/08/22 19:56:29;;;;;;;6.35;4.28;;;;;;;;;;10097005;28;20047;-68
2022/08/22 20:01:38;;;;;;;9.27;4.40;;;;;;;;;;10094416;28;20125;-68
2022/08/22 20:06:38;;;;;;;11.05;4.07;;;;;;;;;;10091654;28;20049;-67
2022/08/22 20:12:05;;;;;;;6.65;5.03;;;;;;;;;;10092384;28;20495;-67
2022/08/22 20:17:21;;;;;;;9.45;5.07;;;;;;;;;;10096098;28;20067;-67
2022/08/22 20:22:29;;;;;;;5.35;4.30;;;;;;;;;;10100928;28;20134;-67
2022/08/22 20:27:25;;;;;;;7.72;4.75;;;;;;;;;;10108451;28;20074;-67
2022/08/22 20:32:24;;;;;;;9.45;5.38;;;;;;;;;;10092054;28;20054;-67
2022/08/22 20:37:23;;;;;;;6.47;5.20;;;;;;;;;;10105407;28;20039;-67
2022/08/22 20:42:42;;;;;;;6.65;4.95;;;;;;;;;;10099549;28;20162;-67
2022/08/22 20:47:39;;;;;;;6.18;4.60;;;;;;;;;;10094480;28;20651;-67
2022/08/22 20:52:40;;;;;;;7.13;4.80;;;;;;;;;;10099233;28;20524;-68
2022/08/22 20:57:45;;;;;;;7.47;4.45;;;;;;;;;;10098557;28;20078;-66
2022/08/22 21:02:57;;;;;;;5.90;4.65;;;;;;;;;;10099487;28;20071;-67
2022/08/22 21:08:18;;;;;;;8.93;4.90;;;;;;;;;;10101411;28;20129;-67
2022/08/22 21:13:18;;;;;;;6.15;5.18;;;;;;;;;;10098717;28;20043;-68
2022/08/22 21:18:26;;;;;;;4.88;4.35;;;;;;;;;;10097257;28;21369;-68
2022/08/22 21:23:23;;;;;;;5.70;4.05;;;;;;;;;;10092228;28;20470;-67
2022/08/22 21:28:45;;;;;;;7.80;4.72;;;;;;;;;;10095172;28;20150;-67
2022/08/22 21:33:43;;;;;;;6.57;4.78;;;;;;;;;;10082446;28;20793;-67
2022/08/22 21:38:44;;;;;;;7.13;4.70;;;;;;;;;;10096239;28;20091;-67
2022/08/22 21:43:41;;;;;;;5.40;4.45;;;;;;;;;;10108946;28;20050;-68
2022/08/22 21:48:43;;;;;;;;;;;;;;;;;;10110420;28;20517;-68
2022/08/22 21:53:39;;;;;;;6.30;4.35;;;;;;;;;;10114196;28;19965;-68
2022/08/22 21:58:37;;;;;;;7.43;3.95;;;;;;;;;;10107856;28;20142;-68
2022/08/22 22:03:36;;;;;;;6.28;4.43;;;;;;;;;;10106353;28;20047;-68
2022/08/22 22:08:32;;;;;;;6.00;3.75;;;;;;;;;;10113657;28;20111;-67
2022/08/22 22:13:29;;;;;;;10.00;4.70;;;;;;;;;;10112434;28;20077;-68
2022/08/22 22:18:28;;;;;;;5.85;3.78;;;;;;;;;;10110947;28;20046;-67
2022/08/22 22:23:25;;;;;;;6.38;4.05;;;;;;;;;;10112762;28;20077;-68
2022/08/22 22:28:27;;;;;;;9.13;4.55;;;;;;;;;;10103925;28;20125;-68
2022/08/22 22:33:23;;;;;;;;;;;;;;;;;;10112223;28;20179;-66
2022/08/22 22:38:20;;;;;;;5.05;3.90;;;;;;;;;;10112730;28;19984;-66
2022/08/22 22:43:19;;;;;;;5.55;3.85;;;;;;;;;;10113754;28;20051;-66
2022/08/22 22:48:16;;;;;;;8.13;4.13;;;;;;;;;;10114371;28;20051;-67
2022/08/22 22:53:20;;;;;;;5.90;3.90;;;;;;;;;;10112018;28;20514;-66
2022/08/22 22:58:34;;;;;;;6.20;3.65;;;;;;;;;;10112535;28;20046;-66
2022/08/22 23:03:30;;;;;;;8.63;4.22;;;;;;;;;;10113194;28;20050;-66
2022/08/22 23:08:27;;;;;;;7.10;3.65;;;;;;;;;;10107954;28;20077;-67
2022/08/22 23:13:23;;;;;;;6.00;3.55;;;;;;;;;;10108561;28;20043;-67
2022/08/22 23:18:19;;;;;;;6.60;3.38;;;;;;;;;;10105868;28;20070;-67
2022/08/22 23:23:22;;;;;;;6.03;3.72;;;;;;;;;;10109496;28;20517;-67
2022/08/22 23:28:18;;;;;;;7.15;3.47;;;;;;;;;;10104252;28;20043;-67
2022/08/22 23:33:14;;;;;;;5.85;3.40;;;;;;;;;;10108417;28;20117;-67
2022/08/22 23:38:10;;;;;;;7.78;3.60;;;;;;;;;;10110578;28;20487;-67
2022/08/22 23:43:07;;;;;;;6.70;3.90;;;;;;;;;;10109545;28;20047;-66
2022/08/22 23:48:03;;;;;;;5.25;3.67;;;;;;;;;;10108492;28;20108;-67
2022/08/22 23:52:59;;;;;;;6.80;3.83;;;;;;;;;;10104188;28;20740;-66
2022/08/22 23:57:56;;;;;;;5.72;3.67;;;;;;;;;;10112121;28;20069;-67
